FDB657L OMDB-OPKC
Flight info
| Callsign | FDB657L |
|---|---|
| Flight time | 1h 40m |
| Altitude | 35000 |
| Route | IVURO1F IVURO M428 TARBO Z440 DAMUM B524 ALPOR G216 LAKIV LAKIV1C |
| Aircraft | B738/M-SABDFGRVYL/LB2 |
Departure
| Time | 2026-04-26 11:44 |
|---|---|
| Airport | Dubai International Airport (OMDB) |
Arrival
| Time | 2026-04-26 13:25 |
|---|---|
| Airport | Jinnah International Airport (OPKC) |
| Time | Latitude | Longitude | Altitude | Speed | Heading |
|---|---|---|---|---|---|
| 2026-04-26 10:39 | 25.25092 | 55.35567 | 27 ft | 0 kts | 31° |
| 2026-04-26 11:18 | 25.25088 | 55.35564 | 27 ft | 2 kts | 31° |
| 2026-04-26 11:18 | 25.25074 | 55.35555 | 27 ft | 2 kts | 31° |
| 2026-04-26 11:18 | 25.25062 | 55.35547 | 27 ft | 2 kts | 31° |
| 2026-04-26 11:18 | 25.25049 | 55.35538 | 27 ft | 2 kts | 31° |
| 2026-04-26 11:19 | 25.25041 | 55.35533 | 27 ft | 2 kts | 28° |
| 2026-04-26 11:19 | 25.25026 | 55.35529 | 27 ft | 2 kts | 1° |
| 2026-04-26 11:19 | 25.25011 | 55.35531 | 27 ft | 2 kts | 340° |
| 2026-04-26 11:19 | 25.24998 | 55.35539 | 27 ft | 2 kts | 318° |
| 2026-04-26 11:20 | 25.24991 | 55.35547 | 26 ft | 0 kts | 303° |
| 2026-04-26 11:20 | 25.24989 | 55.35552 | 26 ft | 1 kts | 298° |
| 2026-04-26 11:20 | 25.24987 | 55.35554 | 26 ft | 0 kts | 300° |
| 2026-04-26 11:20 | 25.24988 | 55.35554 | 26 ft | 0 kts | 300° |
| 2026-04-26 11:23 | 25.24997 | 55.35538 | 27 ft | 6 kts | 301° |
| 2026-04-26 11:23 | 25.25032 | 55.35474 | 27 ft | 12 kts | 301° |
| 2026-04-26 11:24 | 25.25085 | 55.35379 | 25 ft | 15 kts | 302° |
| 2026-04-26 11:24 | 25.25143 | 55.35280 | 24 ft | 15 kts | 305° |
| 2026-04-26 11:24 | 25.25211 | 55.35179 | 21 ft | 15 kts | 303° |
| 2026-04-26 11:24 | 25.25264 | 55.35083 | 23 ft | 13 kts | 301° |
| 2026-04-26 11:25 | 25.25307 | 55.35005 | 25 ft | 10 kts | 302° |
| 2026-04-26 11:25 | 25.25342 | 55.34943 | 28 ft | 8 kts | 303° |
| 2026-04-26 11:25 | 25.25387 | 55.34898 | 28 ft | 10 kts | 335° |
| 2026-04-26 11:25 | 25.25466 | 55.34903 | 29 ft | 13 kts | 27° |
| 2026-04-26 11:26 | 25.25551 | 55.34961 | 30 ft | 14 kts | 31° |
| 2026-04-26 11:26 | 25.25606 | 55.34997 | 30 ft | 5 kts | 31° |
| 2026-04-26 11:26 | 25.25617 | 55.35004 | 30 ft | 0 kts | 30° |
| 2026-04-26 11:26 | 25.25619 | 55.35006 | 30 ft | 1 kts | 31° |
| 2026-04-26 11:27 | 25.25652 | 55.35028 | 29 ft | 9 kts | 31° |
| 2026-04-26 11:27 | 25.25712 | 55.35068 | 30 ft | 10 kts | 31° |
| 2026-04-26 11:27 | 25.25737 | 55.35131 | 30 ft | 11 kts | 107° |
| 2026-04-26 11:27 | 25.25687 | 55.35226 | 31 ft | 15 kts | 122° |
| 2026-04-26 11:28 | 25.25625 | 55.35340 | 31 ft | 18 kts | 121° |
| 2026-04-26 11:28 | 25.25558 | 55.35460 | 29 ft | 18 kts | 121° |
| 2026-04-26 11:28 | 25.25522 | 55.35524 | 29 ft | 4 kts | 121° |
| 2026-04-26 11:28 | 25.25522 | 55.35525 | 29 ft | 0 kts | 121° |
| 2026-04-26 11:29 | 25.25521 | 55.35526 | 29 ft | 1 kts | 121° |
| 2026-04-26 11:29 | 25.25499 | 55.35566 | 30 ft | 8 kts | 121° |
| 2026-04-26 11:30 | 25.25466 | 55.35595 | 30 ft | 6 kts | 198° |
| 2026-04-26 11:30 | 25.25458 | 55.35556 | 27 ft | 10 kts | 280° |
| 2026-04-26 11:30 | 25.25474 | 55.35444 | 27 ft | 11 kts | 283° |
| 2026-04-26 11:30 | 25.25508 | 55.35364 | 27 ft | 11 kts | 301° |
| 2026-04-26 11:31 | 25.25554 | 55.35280 | 28 ft | 14 kts | 301° |
| 2026-04-26 11:31 | 25.25606 | 55.35186 | 29 ft | 9 kts | 302° |
| 2026-04-26 11:31 | 25.25632 | 55.35139 | 29 ft | 5 kts | 302° |
| 2026-04-26 11:31 | 25.25645 | 55.35117 | 29 ft | 2 kts | 302° |
| 2026-04-26 11:32 | 25.25655 | 55.35115 | 29 ft | 1 kts | 38° |
| 2026-04-26 11:32 | 25.25676 | 55.35148 | 30 ft | 8 kts | 53° |
| 2026-04-26 11:32 | 25.25740 | 55.35201 | 30 ft | 14 kts | 29° |
| 2026-04-26 11:32 | 25.25818 | 55.35252 | 30 ft | 11 kts | 32° |
| 2026-04-26 11:33 | 25.25890 | 55.35302 | 30 ft | 13 kts | 31° |
| 2026-04-26 11:33 | 25.25955 | 55.35347 | 30 ft | 7 kts | 32° |
| 2026-04-26 11:33 | 25.25994 | 55.35380 | 31 ft | 9 kts | 47° |
| 2026-04-26 11:33 | 25.26008 | 55.35474 | 32 ft | 14 kts | 103° |
| 2026-04-26 11:34 | 25.25957 | 55.35590 | 33 ft | 18 kts | 121° |
| 2026-04-26 11:34 | 25.25889 | 55.35713 | 34 ft | 19 kts | 121° |
| 2026-04-26 11:34 | 25.25816 | 55.35844 | 36 ft | 19 kts | 121° |
| 2026-04-26 11:34 | 25.25744 | 55.35973 | 36 ft | 19 kts | 121° |
| 2026-04-26 11:35 | 25.25675 | 55.36097 | 38 ft | 18 kts | 121° |
| 2026-04-26 11:35 | 25.25611 | 55.36214 | 39 ft | 18 kts | 121° |
| 2026-04-26 11:35 | 25.25542 | 55.36338 | 39 ft | 20 kts | 122° |
| 2026-04-26 11:35 | 25.25494 | 55.36424 | 39 ft | 18 kts | 121° |
| 2026-04-26 11:36 | 25.25401 | 55.36593 | 41 ft | 20 kts | 121° |
| 2026-04-26 11:36 | 25.25326 | 55.36726 | 42 ft | 20 kts | 121° |
| 2026-04-26 11:36 | 25.25252 | 55.36861 | 44 ft | 19 kts | 121° |
| 2026-04-26 11:36 | 25.25182 | 55.36986 | 45 ft | 19 kts | 121° |
| 2026-04-26 11:37 | 25.25107 | 55.37122 | 45 ft | 20 kts | 121° |
| 2026-04-26 11:37 | 25.25032 | 55.37257 | 45 ft | 20 kts | 121° |
| 2026-04-26 11:37 | 25.24956 | 55.37394 | 47 ft | 20 kts | 121° |
| 2026-04-26 11:37 | 25.24885 | 55.37523 | 49 ft | 19 kts | 121° |
| 2026-04-26 11:38 | 25.24816 | 55.37647 | 49 ft | 18 kts | 121° |
| 2026-04-26 11:38 | 25.24752 | 55.37763 | 49 ft | 17 kts | 121° |
| 2026-04-26 11:38 | 25.24697 | 55.37861 | 49 ft | 12 kts | 121° |
| 2026-04-26 11:38 | 25.24653 | 55.37940 | 51 ft | 10 kts | 121° |
| 2026-04-26 11:39 | 25.24645 | 55.37955 | 51 ft | 0 kts | 117° |
| 2026-04-26 11:39 | 25.24650 | 55.37963 | 51 ft | 1 kts | 23° |
| 2026-04-26 11:39 | 25.24681 | 55.37967 | 51 ft | 6 kts | 14° |
| 2026-04-26 11:39 | 25.24699 | 55.37975 | 51 ft | 0 kts | 26° |
| 2026-04-26 11:40 | 25.24720 | 55.37987 | 51 ft | 5 kts | 27° |
| 2026-04-26 11:40 | 25.24762 | 55.38013 | 52 ft | 8 kts | 30° |
| 2026-04-26 11:40 | 25.24807 | 55.38027 | 52 ft | 4 kts | 338° |
| 2026-04-26 11:40 | 25.24824 | 55.37999 | 52 ft | 4 kts | 295° |
| 2026-04-26 11:41 | 25.24834 | 55.37978 | 51 ft | 0 kts | 301° |
| 2026-04-26 11:43 | 25.24851 | 55.37946 | 51 ft | 23 kts | 301° |
| 2026-04-26 11:44 | 25.25070 | 55.37553 | 47 ft | 91 kts | 301° |
| 2026-04-26 11:44 | 25.25504 | 55.36771 | 42 ft | 145 kts | 301° |
| 2026-04-26 11:44 | 25.26108 | 55.35680 | 72 ft | 184 kts | 300° |
| 2026-04-26 11:44 | 25.26758 | 55.34533 | 854 ft | 170 kts | 303° |
| 2026-04-26 11:45 | 25.27403 | 55.33450 | 1209 ft | 175 kts | 302° |
| 2026-04-26 11:45 | 25.28048 | 55.32241 | 1459 ft | 185 kts | 301° |
| 2026-04-26 11:45 | 25.28706 | 55.31012 | 1808 ft | 188 kts | 302° |
| 2026-04-26 11:45 | 25.29547 | 55.29905 | 2168 ft | 192 kts | 324° |
| 2026-04-26 11:46 | 25.30817 | 55.29405 | 2456 ft | 204 kts | 354° |
| 2026-04-26 11:46 | 25.32286 | 55.29453 | 2634 ft | 220 kts | 0° |
| 2026-04-26 11:46 | 25.33854 | 55.29543 | 2920 ft | 230 kts | 359° |
| 2026-04-26 11:46 | 25.35473 | 55.29595 | 3410 ft | 233 kts | 358° |
| 2026-04-26 11:47 | 25.37095 | 55.29633 | 3990 ft | 234 kts | 358° |
| 2026-04-26 11:47 | 25.38712 | 55.29724 | 4540 ft | 237 kts | 5° |
| 2026-04-26 11:47 | 25.40297 | 55.30341 | 5013 ft | 250 kts | 31° |
| 2026-04-26 11:47 | 25.41573 | 55.31718 | 5308 ft | 268 kts | 48° |
| 2026-04-26 11:48 | 25.42737 | 55.33434 | 5565 ft | 284 kts | 50° |
| 2026-04-26 11:48 | 25.43936 | 55.35204 | 5989 ft | 292 kts | 49° |
| 2026-04-26 11:48 | 25.45185 | 55.36969 | 6535 ft | 295 kts | 48° |
| 2026-04-26 11:48 | 25.46467 | 55.38736 | 7105 ft | 297 kts | 47° |
| 2026-04-26 11:49 | 25.47775 | 55.40521 | 7694 ft | 299 kts | 48° |
| 2026-04-26 11:49 | 25.49087 | 55.42324 | 8237 ft | 303 kts | 49° |
| 2026-04-26 11:49 | 25.50396 | 55.44188 | 8835 ft | 306 kts | 51° |
| 2026-04-26 11:49 | 25.51524 | 55.46163 | 9372 ft | 312 kts | 64° |
| 2026-04-26 11:50 | 25.52149 | 55.48478 | 9953 ft | 317 kts | 83° |
| 2026-04-26 11:50 | 25.52161 | 55.50941 | 10449 ft | 324 kts | 97° |
| 2026-04-26 11:50 | 25.51653 | 55.53407 | 10716 ft | 339 kts | 112° |
| 2026-04-26 11:50 | 25.50574 | 55.55760 | 11025 ft | 351 kts | 122° |
| 2026-04-26 11:51 | 25.49241 | 55.58099 | 11272 ft | 365 kts | 124° |
| 2026-04-26 11:51 | 25.47811 | 55.60490 | 11527 ft | 379 kts | 124° |
| 2026-04-26 11:51 | 25.46345 | 55.62944 | 11744 ft | 393 kts | 124° |
| 2026-04-26 11:51 | 25.44835 | 55.65505 | 12188 ft | 399 kts | 124° |
| 2026-04-26 11:52 | 25.43353 | 55.68102 | 12765 ft | 402 kts | 121° |
| 2026-04-26 11:52 | 25.42493 | 55.69975 | 13053 ft | 407 kts | 114° |
| 2026-04-26 11:52 | 25.41334 | 55.73927 | 13847 ft | 410 kts | 105° |
| 2026-04-26 11:52 | 25.40688 | 55.77011 | 14400 ft | 414 kts | 102° |
| 2026-04-26 11:53 | 25.40114 | 55.80104 | 14972 ft | 418 kts | 102° |
| 2026-04-26 11:53 | 25.39527 | 55.83305 | 15510 ft | 422 kts | 102° |
| 2026-04-26 11:53 | 25.38926 | 55.86447 | 16119 ft | 425 kts | 103° |
| 2026-04-26 11:54 | 25.37623 | 55.92852 | 17228 ft | 432 kts | 104° |
| 2026-04-26 11:54 | 25.36935 | 55.96096 | 17789 ft | 435 kts | 104° |
| 2026-04-26 11:54 | 25.36232 | 55.99374 | 18293 ft | 439 kts | 104° |
| 2026-04-26 11:54 | 25.35522 | 56.02667 | 18820 ft | 443 kts | 105° |
| 2026-04-26 11:55 | 25.34805 | 56.05985 | 19322 ft | 447 kts | 104° |
| 2026-04-26 11:55 | 25.34089 | 56.09298 | 19818 ft | 451 kts | 105° |
| 2026-04-26 11:55 | 25.33350 | 56.12719 | 20342 ft | 454 kts | 105° |
| 2026-04-26 11:55 | 25.32582 | 56.16092 | 20839 ft | 457 kts | 107° |
| 2026-04-26 11:56 | 25.31642 | 56.19457 | 21333 ft | 459 kts | 110° |
| 2026-04-26 11:56 | 25.30597 | 56.22748 | 21862 ft | 461 kts | 112° |
| 2026-04-26 11:56 | 25.29477 | 56.26088 | 22353 ft | 464 kts | 112° |
| 2026-04-26 11:56 | 25.28335 | 56.29425 | 22846 ft | 467 kts | 112° |
| 2026-04-26 11:57 | 25.27185 | 56.32778 | 23265 ft | 471 kts | 112° |
| 2026-04-26 11:57 | 25.26019 | 56.36192 | 23711 ft | 474 kts | 112° |
| 2026-04-26 11:57 | 25.24866 | 56.39590 | 24094 ft | 478 kts | 112° |
| 2026-04-26 11:57 | 25.23698 | 56.43052 | 24519 ft | 481 kts | 112° |
| 2026-04-26 11:58 | 25.22540 | 56.46507 | 24919 ft | 485 kts | 112° |
| 2026-04-26 11:58 | 25.21363 | 56.50029 | 25291 ft | 488 kts | 112° |
| 2026-04-26 11:58 | 25.20197 | 56.53531 | 25696 ft | 491 kts | 112° |
| 2026-04-26 11:58 | 25.19022 | 56.57063 | 26077 ft | 494 kts | 111° |
| 2026-04-26 11:59 | 25.17804 | 56.60652 | 26467 ft | 497 kts | 112° |
| 2026-04-26 11:59 | 25.16528 | 56.64185 | 26859 ft | 499 kts | 114° |
| 2026-04-26 11:59 | 25.15204 | 56.67706 | 27188 ft | 502 kts | 115° |
| 2026-04-26 11:59 | 25.13835 | 56.71277 | 27617 ft | 502 kts | 115° |
| 2026-04-26 12:00 | 25.12477 | 56.74797 | 28093 ft | 501 kts | 115° |
| 2026-04-26 12:00 | 25.11113 | 56.78334 | 28601 ft | 500 kts | 115° |
| 2026-04-26 12:00 | 25.09777 | 56.81808 | 29065 ft | 499 kts | 115° |
| 2026-04-26 12:00 | 25.08414 | 56.85363 | 29525 ft | 498 kts | 115° |
| 2026-04-26 12:01 | 25.07074 | 56.88869 | 29908 ft | 498 kts | 114° |
| 2026-04-26 12:01 | 25.05742 | 56.92363 | 30197 ft | 500 kts | 114° |
| 2026-04-26 12:01 | 25.04384 | 56.95927 | 30467 ft | 503 kts | 114° |
| 2026-04-26 12:01 | 25.03031 | 56.99483 | 30759 ft | 505 kts | 113° |
| 2026-04-26 12:02 | 25.01675 | 57.03048 | 31040 ft | 507 kts | 113° |
| 2026-04-26 12:02 | 25.00307 | 57.06646 | 31378 ft | 508 kts | 112° |
| 2026-04-26 12:02 | 24.98932 | 57.10260 | 31686 ft | 509 kts | 112° |
| 2026-04-26 12:02 | 24.97574 | 57.13825 | 31971 ft | 510 kts | 112° |
| 2026-04-26 12:03 | 24.96186 | 57.17467 | 32237 ft | 512 kts | 111° |
| 2026-04-26 12:03 | 24.94806 | 57.21085 | 32486 ft | 514 kts | 111° |
| 2026-04-26 12:03 | 24.93415 | 57.24730 | 32756 ft | 516 kts | 111° |
| 2026-04-26 12:03 | 24.92024 | 57.28369 | 33114 ft | 516 kts | 111° |
| 2026-04-26 12:04 | 24.90644 | 57.31974 | 33537 ft | 514 kts | 111° |
| 2026-04-26 12:04 | 24.89259 | 57.35592 | 33940 ft | 513 kts | 111° |
| 2026-04-26 12:04 | 24.87874 | 57.39208 | 34307 ft | 511 kts | 111° |
| 2026-04-26 12:04 | 24.86494 | 57.42806 | 34658 ft | 511 kts | 111° |
| 2026-04-26 12:05 | 24.85126 | 57.46373 | 34794 ft | 512 kts | 111° |
| 2026-04-26 12:05 | 24.82370 | 57.53548 | 34791 ft | 508 kts | 111° |
| 2026-04-26 12:06 | 24.79619 | 57.60695 | 34792 ft | 509 kts | 111° |
| 2026-04-26 12:06 | 24.76856 | 57.67860 | 34784 ft | 507 kts | 111° |
| 2026-04-26 12:07 | 24.74257 | 57.75075 | 34782 ft | 506 kts | 105° |
| 2026-04-26 12:07 | 24.72533 | 57.82478 | 34781 ft | 502 kts | 98° |
| 2026-04-26 12:08 | 24.71373 | 57.90020 | 34780 ft | 500 kts | 95° |
| 2026-04-26 12:08 | 24.70440 | 57.97604 | 34780 ft | 500 kts | 94° |
| 2026-04-26 12:09 | 24.69546 | 58.05172 | 34781 ft | 499 kts | 94° |
| 2026-04-26 12:09 | 24.68636 | 58.12650 | 34779 ft | 498 kts | 94° |
| 2026-04-26 12:10 | 24.67691 | 58.20198 | 34780 ft | 498 kts | 94° |
| 2026-04-26 12:10 | 24.66734 | 58.27701 | 34779 ft | 498 kts | 94° |
| 2026-04-26 12:11 | 24.65763 | 58.35241 | 34775 ft | 498 kts | 94° |
| 2026-04-26 12:11 | 24.64792 | 58.42740 | 34775 ft | 499 kts | 94° |
| 2026-04-26 12:12 | 24.63815 | 58.50259 | 34775 ft | 497 kts | 94° |
| 2026-04-26 12:12 | 24.62836 | 58.57772 | 34774 ft | 497 kts | 94° |
| 2026-04-26 12:13 | 24.61856 | 58.65262 | 34771 ft | 496 kts | 95° |
| 2026-04-26 12:13 | 24.60875 | 58.72728 | 34772 ft | 496 kts | 95° |
| 2026-04-26 12:14 | 24.59885 | 58.80232 | 34769 ft | 495 kts | 95° |
| 2026-04-26 12:14 | 24.58899 | 58.87677 | 34765 ft | 494 kts | 95° |
| 2026-04-26 12:15 | 24.57905 | 58.95153 | 34755 ft | 495 kts | 95° |
| 2026-04-26 12:15 | 24.56914 | 59.02571 | 34758 ft | 495 kts | 95° |
| 2026-04-26 12:16 | 24.55912 | 59.10054 | 34765 ft | 494 kts | 95° |
| 2026-04-26 12:16 | 24.54912 | 59.17489 | 34757 ft | 493 kts | 95° |
| 2026-04-26 12:17 | 24.53852 | 59.24915 | 34755 ft | 494 kts | 97° |
| 2026-04-26 12:17 | 24.52366 | 59.32272 | 34758 ft | 496 kts | 101° |
| 2026-04-26 12:18 | 24.50710 | 59.39555 | 34755 ft | 493 kts | 101° |
| 2026-04-26 12:18 | 24.49056 | 59.46855 | 34763 ft | 493 kts | 100° |
| 2026-04-26 12:19 | 24.47443 | 59.54133 | 34764 ft | 492 kts | 100° |
| 2026-04-26 12:19 | 24.45856 | 59.61412 | 34765 ft | 491 kts | 100° |
| 2026-04-26 12:20 | 24.44281 | 59.68686 | 34769 ft | 492 kts | 100° |
| 2026-04-26 12:20 | 24.42708 | 59.75961 | 34768 ft | 491 kts | 101° |
| 2026-04-26 12:21 | 24.41124 | 59.83268 | 34770 ft | 490 kts | 101° |
| 2026-04-26 12:21 | 24.39548 | 59.90522 | 34778 ft | 491 kts | 101° |
| 2026-04-26 12:22 | 24.37972 | 59.97759 | 34773 ft | 488 kts | 101° |
| 2026-04-26 12:22 | 24.36392 | 60.04996 | 34776 ft | 489 kts | 101° |
| 2026-04-26 12:23 | 24.34811 | 60.12222 | 34780 ft | 486 kts | 101° |
| 2026-04-26 12:23 | 24.33242 | 60.19380 | 34773 ft | 487 kts | 101° |
| 2026-04-26 12:24 | 24.31659 | 60.26573 | 34770 ft | 487 kts | 101° |
| 2026-04-26 12:24 | 24.30069 | 60.33793 | 34773 ft | 487 kts | 101° |
| 2026-04-26 12:25 | 24.27685 | 60.44572 | 34777 ft | 486 kts | 101° |
| 2026-04-26 12:25 | 24.26096 | 60.51748 | 34772 ft | 485 kts | 101° |
| 2026-04-26 12:26 | 24.24503 | 60.58918 | 34773 ft | 484 kts | 101° |
| 2026-04-26 12:26 | 24.22908 | 60.66082 | 34780 ft | 485 kts | 102° |
| 2026-04-26 12:27 | 24.21319 | 60.73203 | 34770 ft | 483 kts | 102° |
| 2026-04-26 12:27 | 24.19726 | 60.80336 | 34770 ft | 483 kts | 102° |
| 2026-04-26 12:28 | 24.18128 | 60.87481 | 34755 ft | 482 kts | 102° |
| 2026-04-26 12:28 | 24.16535 | 60.94597 | 34756 ft | 482 kts | 102° |
| 2026-04-26 12:29 | 24.14938 | 61.01711 | 34761 ft | 483 kts | 102° |
| 2026-04-26 12:30 | 24.12541 | 61.12342 | 34757 ft | 480 kts | 102° |
| 2026-04-26 12:30 | 24.10934 | 61.19452 | 34765 ft | 481 kts | 102° |
| 2026-04-26 12:31 | 24.08626 | 61.30107 | 34774 ft | 481 kts | 97° |
| 2026-04-26 12:31 | 24.08353 | 61.37339 | 34776 ft | 475 kts | 83° |
| 2026-04-26 12:32 | 24.09200 | 61.44505 | 34771 ft | 476 kts | 78° |
| 2026-04-26 12:33 | 24.10889 | 61.55118 | 34769 ft | 474 kts | 77° |
| 2026-04-26 12:33 | 24.11999 | 61.62216 | 34764 ft | 474 kts | 77° |
| 2026-04-26 12:34 | 24.13064 | 61.69292 | 34765 ft | 474 kts | 78° |
| 2026-04-26 12:34 | 24.14110 | 61.76424 | 34766 ft | 474 kts | 78° |
| 2026-04-26 12:35 | 24.15131 | 61.83537 | 34775 ft | 474 kts | 79° |
| 2026-04-26 12:35 | 24.16105 | 61.90664 | 34779 ft | 475 kts | 79° |
| 2026-04-26 12:36 | 24.17063 | 61.97806 | 34780 ft | 475 kts | 79° |
| 2026-04-26 12:36 | 24.18019 | 62.04943 | 34777 ft | 475 kts | 79° |
| 2026-04-26 12:37 | 24.18973 | 62.12071 | 34769 ft | 474 kts | 79° |
| 2026-04-26 12:37 | 24.19921 | 62.19150 | 34770 ft | 473 kts | 79° |
| 2026-04-26 12:38 | 24.20875 | 62.26289 | 34771 ft | 474 kts | 79° |
| 2026-04-26 12:38 | 24.21825 | 62.33411 | 34770 ft | 473 kts | 79° |
| 2026-04-26 12:39 | 24.22769 | 62.40522 | 34764 ft | 471 kts | 79° |
| 2026-04-26 12:39 | 24.23704 | 62.47591 | 34760 ft | 471 kts | 79° |
| 2026-04-26 12:40 | 24.24644 | 62.54713 | 34757 ft | 472 kts | 79° |
| 2026-04-26 12:40 | 24.25569 | 62.61763 | 34753 ft | 470 kts | 79° |
| 2026-04-26 12:41 | 24.26500 | 62.68871 | 34757 ft | 471 kts | 79° |
| 2026-04-26 12:41 | 24.27421 | 62.75936 | 34755 ft | 471 kts | 79° |
| 2026-04-26 12:42 | 24.28344 | 62.83035 | 34754 ft | 472 kts | 79° |
| 2026-04-26 12:42 | 24.29264 | 62.90147 | 34754 ft | 471 kts | 79° |
| 2026-04-26 12:43 | 24.30178 | 62.97237 | 34752 ft | 471 kts | 79° |
| 2026-04-26 12:43 | 24.31091 | 63.04335 | 34753 ft | 470 kts | 79° |
| 2026-04-26 12:44 | 24.31997 | 63.11415 | 34753 ft | 469 kts | 79° |
| 2026-04-26 12:44 | 24.32896 | 63.18468 | 34757 ft | 470 kts | 79° |
| 2026-04-26 12:45 | 24.33798 | 63.25571 | 34762 ft | 470 kts | 79° |
| 2026-04-26 12:45 | 24.34689 | 63.32614 | 34762 ft | 470 kts | 79° |
| 2026-04-26 12:46 | 24.35582 | 63.39698 | 34766 ft | 470 kts | 79° |
| 2026-04-26 12:46 | 24.36473 | 63.46799 | 34762 ft | 470 kts | 79° |
| 2026-04-26 12:47 | 24.37358 | 63.53883 | 34767 ft | 470 kts | 79° |
| 2026-04-26 12:47 | 24.38238 | 63.60941 | 34764 ft | 468 kts | 79° |
| 2026-04-26 12:48 | 24.39118 | 63.68028 | 34766 ft | 469 kts | 80° |
| 2026-04-26 12:48 | 24.39991 | 63.75085 | 34769 ft | 469 kts | 80° |
| 2026-04-26 12:49 | 24.40863 | 63.82159 | 34764 ft | 469 kts | 80° |
| 2026-04-26 12:49 | 24.41735 | 63.89275 | 34764 ft | 469 kts | 80° |
| 2026-04-26 12:50 | 24.42596 | 63.96323 | 34763 ft | 468 kts | 80° |
| 2026-04-26 12:50 | 24.43454 | 64.03374 | 34758 ft | 468 kts | 80° |
| 2026-04-26 12:51 | 24.44312 | 64.10448 | 34752 ft | 468 kts | 80° |
| 2026-04-26 12:51 | 24.45165 | 64.17514 | 34751 ft | 468 kts | 80° |
| 2026-04-26 12:52 | 24.46011 | 64.24551 | 34751 ft | 467 kts | 80° |
| 2026-04-26 12:52 | 24.46858 | 64.31616 | 34751 ft | 467 kts | 80° |
| 2026-04-26 12:53 | 24.47700 | 64.38674 | 34753 ft | 467 kts | 80° |
| 2026-04-26 12:53 | 24.48538 | 64.45735 | 34751 ft | 467 kts | 80° |
| 2026-04-26 12:54 | 24.49375 | 64.52805 | 34751 ft | 466 kts | 80° |
| 2026-04-26 12:54 | 24.50199 | 64.59793 | 34752 ft | 466 kts | 80° |
| 2026-04-26 12:55 | 24.51029 | 64.66856 | 34750 ft | 466 kts | 81° |
| 2026-04-26 12:55 | 24.51852 | 64.73895 | 34752 ft | 465 kts | 81° |
| 2026-04-26 12:56 | 24.52672 | 64.80938 | 34749 ft | 465 kts | 81° |
| 2026-04-26 12:56 | 24.53406 | 64.87950 | 34754 ft | 466 kts | 83° |
| 2026-04-26 12:57 | 24.53957 | 64.95028 | 34760 ft | 465 kts | 83° |
| 2026-04-26 12:57 | 24.54465 | 65.02077 | 34765 ft | 465 kts | 83° |
| 2026-04-26 12:58 | 24.55248 | 65.12685 | 34768 ft | 465 kts | 83° |
| 2026-04-26 12:58 | 24.55782 | 65.19760 | 34755 ft | 464 kts | 83° |
| 2026-04-26 12:59 | 24.56317 | 65.26808 | 34753 ft | 463 kts | 83° |
| 2026-04-26 12:59 | 24.56850 | 65.33821 | 34713 ft | 465 kts | 83° |
| 2026-04-26 13:00 | 24.57119 | 65.37357 | 34447 ft | 465 kts | 83° |
| 2026-04-26 13:00 | 24.57385 | 65.40888 | 34192 ft | 462 kts | 83° |
| 2026-04-26 13:00 | 24.57650 | 65.44412 | 33937 ft | 461 kts | 83° |
| 2026-04-26 13:00 | 24.57914 | 65.47917 | 33684 ft | 462 kts | 84° |
| 2026-04-26 13:01 | 24.58174 | 65.51389 | 33367 ft | 462 kts | 84° |
| 2026-04-26 13:01 | 24.58435 | 65.54893 | 32707 ft | 461 kts | 84° |
| 2026-04-26 13:01 | 24.58697 | 65.58410 | 31978 ft | 461 kts | 84° |
| 2026-04-26 13:01 | 24.58954 | 65.61893 | 31543 ft | 453 kts | 84° |
| 2026-04-26 13:02 | 24.59206 | 65.65316 | 31071 ft | 448 kts | 84° |
| 2026-04-26 13:02 | 24.59452 | 65.68675 | 30580 ft | 443 kts | 84° |
| 2026-04-26 13:02 | 24.59696 | 65.72019 | 30086 ft | 438 kts | 84° |
| 2026-04-26 13:02 | 24.59938 | 65.75322 | 29603 ft | 433 kts | 84° |
| 2026-04-26 13:03 | 24.60177 | 65.78587 | 29111 ft | 429 kts | 84° |
| 2026-04-26 13:03 | 24.60416 | 65.81853 | 28634 ft | 424 kts | 84° |
| 2026-04-26 13:03 | 24.60648 | 65.85049 | 28157 ft | 420 kts | 84° |
| 2026-04-26 13:03 | 24.60880 | 65.88236 | 27678 ft | 416 kts | 84° |
| 2026-04-26 13:04 | 24.61108 | 65.91390 | 27200 ft | 412 kts | 84° |
| 2026-04-26 13:04 | 24.61331 | 65.94490 | 26732 ft | 408 kts | 84° |
| 2026-04-26 13:04 | 24.61551 | 65.97558 | 26261 ft | 404 kts | 84° |
| 2026-04-26 13:04 | 24.61769 | 66.00603 | 25798 ft | 401 kts | 85° |
| 2026-04-26 13:05 | 24.61987 | 66.03646 | 25325 ft | 397 kts | 84° |
| 2026-04-26 13:05 | 24.62200 | 66.06652 | 24857 ft | 394 kts | 85° |
| 2026-04-26 13:05 | 24.62412 | 66.09650 | 24394 ft | 394 kts | 85° |
| 2026-04-26 13:05 | 24.62629 | 66.12695 | 23926 ft | 409 kts | 85° |
| 2026-04-26 13:06 | 24.62850 | 66.15823 | 23415 ft | 412 kts | 85° |
| 2026-04-26 13:06 | 24.63070 | 66.18954 | 22919 ft | 408 kts | 85° |
| 2026-04-26 13:06 | 24.63286 | 66.22035 | 22435 ft | 404 kts | 85° |
| 2026-04-26 13:06 | 24.63498 | 66.25075 | 21953 ft | 400 kts | 85° |
| 2026-04-26 13:07 | 24.63708 | 66.28088 | 21467 ft | 396 kts | 85° |
| 2026-04-26 13:07 | 24.63919 | 66.31107 | 20982 ft | 393 kts | 85° |
| 2026-04-26 13:07 | 24.64125 | 66.34075 | 20496 ft | 389 kts | 85° |
| 2026-04-26 13:07 | 24.64330 | 66.37038 | 20007 ft | 386 kts | 85° |
| 2026-04-26 13:08 | 24.64530 | 66.39934 | 19534 ft | 383 kts | 85° |
| 2026-04-26 13:08 | 24.64730 | 66.42855 | 19038 ft | 379 kts | 85° |
| 2026-04-26 13:08 | 24.64928 | 66.45734 | 18559 ft | 376 kts | 85° |
| 2026-04-26 13:08 | 24.65122 | 66.48569 | 18088 ft | 372 kts | 85° |
| 2026-04-26 13:09 | 24.65313 | 66.51381 | 17609 ft | 369 kts | 85° |
| 2026-04-26 13:09 | 24.65501 | 66.54158 | 17141 ft | 366 kts | 85° |
| 2026-04-26 13:09 | 24.65690 | 66.56943 | 16770 ft | 360 kts | 85° |
| 2026-04-26 13:09 | 24.65872 | 66.59654 | 16748 ft | 358 kts | 85° |
| 2026-04-26 13:10 | 24.66058 | 66.62389 | 16743 ft | 363 kts | 85° |
| 2026-04-26 13:10 | 24.66244 | 66.65141 | 16739 ft | 362 kts | 85° |
| 2026-04-26 13:10 | 24.66430 | 66.67899 | 16545 ft | 360 kts | 85° |
| 2026-04-26 13:10 | 24.66613 | 66.70635 | 16138 ft | 356 kts | 85° |
| 2026-04-26 13:11 | 24.66793 | 66.73319 | 15679 ft | 353 kts | 85° |
| 2026-04-26 13:11 | 24.66972 | 66.75993 | 15216 ft | 350 kts | 85° |
| 2026-04-26 13:11 | 24.67147 | 66.78629 | 14766 ft | 347 kts | 85° |
| 2026-04-26 13:11 | 24.67320 | 66.81235 | 14317 ft | 344 kts | 85° |
| 2026-04-26 13:12 | 24.67495 | 66.83866 | 13867 ft | 341 kts | 85° |
| 2026-04-26 13:12 | 24.67666 | 66.86457 | 13416 ft | 338 kts | 85° |
| 2026-04-26 13:12 | 24.67834 | 66.88994 | 12976 ft | 335 kts | 85° |
| 2026-04-26 13:12 | 24.68001 | 66.91549 | 12546 ft | 332 kts | 85° |
| 2026-04-26 13:13 | 24.68164 | 66.94047 | 12110 ft | 329 kts | 85° |
| 2026-04-26 13:13 | 24.68326 | 66.96529 | 11672 ft | 326 kts | 85° |
| 2026-04-26 13:13 | 24.68488 | 66.99011 | 11241 ft | 323 kts | 85° |
| 2026-04-26 13:13 | 24.68645 | 67.01426 | 10830 ft | 320 kts | 85° |
| 2026-04-26 13:14 | 24.68851 | 67.03868 | 10366 ft | 318 kts | 80° |
| 2026-04-26 13:14 | 24.69453 | 67.06149 | 10088 ft | 309 kts | 64° |
| 2026-04-26 13:14 | 24.70485 | 67.08197 | 9974 ft | 295 kts | 58° |
| 2026-04-26 13:14 | 24.71562 | 67.10039 | 9859 ft | 283 kts | 57° |
| 2026-04-26 13:15 | 24.72616 | 67.11830 | 9670 ft | 274 kts | 57° |
| 2026-04-26 13:15 | 24.73632 | 67.13616 | 9341 ft | 273 kts | 58° |
| 2026-04-26 13:15 | 24.74609 | 67.15390 | 8987 ft | 273 kts | 59° |
| 2026-04-26 13:15 | 24.75262 | 67.16595 | 8755 ft | 272 kts | 59° |
| 2026-04-26 13:16 | 24.76544 | 67.18973 | 8320 ft | 270 kts | 59° |
| 2026-04-26 13:16 | 24.77491 | 67.20733 | 7971 ft | 269 kts | 58° |
| 2026-04-26 13:16 | 24.78439 | 67.22492 | 7657 ft | 267 kts | 58° |
| 2026-04-26 13:16 | 24.79396 | 67.24266 | 7326 ft | 266 kts | 58° |
| 2026-04-26 13:17 | 24.81270 | 67.27743 | 6681 ft | 264 kts | 58° |
| 2026-04-26 13:17 | 24.82197 | 67.29462 | 6355 ft | 263 kts | 58° |
| 2026-04-26 13:18 | 24.84071 | 67.32941 | 5703 ft | 263 kts | 58° |
| 2026-04-26 13:18 | 24.84990 | 67.34648 | 5387 ft | 263 kts | 58° |
| 2026-04-26 13:18 | 24.86971 | 67.38036 | 4730 ft | 261 kts | 45° |
| 2026-04-26 13:19 | 24.88419 | 67.39146 | 4502 ft | 258 kts | 14° |
| 2026-04-26 13:19 | 24.90209 | 67.39326 | 4417 ft | 255 kts | 348° |
| 2026-04-26 13:19 | 24.91883 | 67.38871 | 4270 ft | 245 kts | 340° |
| 2026-04-26 13:19 | 24.93499 | 67.38267 | 4015 ft | 240 kts | 332° |
| 2026-04-26 13:20 | 24.94792 | 67.37251 | 3815 ft | 223 kts | 303° |
| 2026-04-26 13:20 | 24.95317 | 67.35709 | 3500 ft | 214 kts | 270° |
| 2026-04-26 13:20 | 24.95104 | 67.34116 | 3122 ft | 210 kts | 255° |
| 2026-04-26 13:20 | 24.94712 | 67.32586 | 2756 ft | 200 kts | 255° |
| 2026-04-26 13:21 | 24.94362 | 67.31194 | 2514 ft | 181 kts | 256° |
| 2026-04-26 13:21 | 24.94144 | 67.30318 | 2339 ft | 171 kts | 256° |
| 2026-04-26 13:21 | 24.93744 | 67.28745 | 2076 ft | 152 kts | 256° |
| 2026-04-26 13:21 | 24.93475 | 67.27681 | 1900 ft | 136 kts | 256° |
| 2026-04-26 13:22 | 24.93219 | 67.26664 | 1710 ft | 139 kts | 256° |
| 2026-04-26 13:22 | 24.92957 | 67.25642 | 1526 ft | 137 kts | 256° |
| 2026-04-26 13:22 | 24.92699 | 67.24627 | 1348 ft | 139 kts | 256° |
| 2026-04-26 13:22 | 24.92438 | 67.23597 | 1182 ft | 139 kts | 256° |
| 2026-04-26 13:23 | 24.92176 | 67.22566 | 996 ft | 140 kts | 256° |
| 2026-04-26 13:23 | 24.91911 | 67.21523 | 819 ft | 142 kts | 256° |
| 2026-04-26 13:23 | 24.91632 | 67.20480 | 647 ft | 144 kts | 255° |
| 2026-04-26 13:23 | 24.91358 | 67.19416 | 469 ft | 145 kts | 257° |
| 2026-04-26 13:24 | 24.91093 | 67.18334 | 286 ft | 147 kts | 256° |
| 2026-04-26 13:24 | 24.90814 | 67.17236 | 99 ft | 148 kts | 256° |
| 2026-04-26 13:24 | 24.90578 | 67.16309 | 85 ft | 99 kts | 256° |
| 2026-04-26 13:24 | 24.90439 | 67.15757 | 82 ft | 53 kts | 254° |
| 2026-04-26 13:25 | 24.90369 | 67.15475 | 82 ft | 29 kts | 255° |
| 2026-04-26 13:25 | 24.90318 | 67.15273 | 81 ft | 25 kts | 255° |
| 2026-04-26 13:25 | 24.90273 | 67.15110 | 81 ft | 19 kts | 248° |
| 2026-04-26 13:25 | 24.90204 | 67.14991 | 79 ft | 17 kts | 232° |
| 2026-04-26 13:26 | 24.90136 | 67.14909 | 78 ft | 9 kts | 224° |
| 2026-04-26 13:26 | 24.90093 | 67.14871 | 78 ft | 6 kts | 204° |
| 2026-04-26 13:26 | 24.90050 | 67.14882 | 78 ft | 8 kts | 139° |
| 2026-04-26 13:26 | 24.90037 | 67.14951 | 78 ft | 11 kts | 77° |
| 2026-04-26 13:27 | 24.90061 | 67.15045 | 78 ft | 14 kts | 73° |
| 2026-04-26 13:27 | 24.90090 | 67.15163 | 78 ft | 17 kts | 75° |
| 2026-04-26 13:27 | 24.90127 | 67.15305 | 79 ft | 19 kts | 74° |
| 2026-04-26 13:27 | 24.90161 | 67.15444 | 79 ft | 18 kts | 75° |
| 2026-04-26 13:28 | 24.90195 | 67.15575 | 80 ft | 16 kts | 74° |
| 2026-04-26 13:28 | 24.90224 | 67.15690 | 82 ft | 15 kts | 75° |
| 2026-04-26 13:28 | 24.90255 | 67.15812 | 82 ft | 17 kts | 74° |
| 2026-04-26 13:28 | 24.90279 | 67.15913 | 83 ft | 13 kts | 75° |
| 2026-04-26 13:29 | 24.90308 | 67.16022 | 85 ft | 15 kts | 73° |
| 2026-04-26 13:29 | 24.90328 | 67.16104 | 85 ft | 17 kts | 75° |
| 2026-04-26 13:29 | 24.90368 | 67.16262 | 85 ft | 14 kts | 74° |
| 2026-04-26 13:29 | 24.90374 | 67.16340 | 85 ft | 9 kts | 119° |
| 2026-04-26 13:30 | 24.90314 | 67.16378 | 86 ft | 10 kts | 141° |
| 2026-04-26 13:30 | 24.90299 | 67.16440 | 87 ft | 9 kts | 77° |
| 2026-04-26 13:30 | 24.90314 | 67.16507 | 88 ft | 8 kts | 75° |
| 2026-04-26 13:30 | 24.90331 | 67.16576 | 88 ft | 9 kts | 73° |
| 2026-04-26 13:31 | 24.90352 | 67.16652 | 88 ft | 10 kts | 75° |
| 2026-04-26 13:31 | 24.90346 | 67.16700 | 88 ft | 4 kts | 159° |
| 2026-04-26 13:31 | 24.90318 | 67.16688 | 88 ft | 4 kts | 209° |
| 2026-04-26 13:31 | 24.90289 | 67.16671 | 88 ft | 5 kts | 205° |
| 2026-04-26 13:32 | 24.90259 | 67.16657 | 88 ft | 4 kts | 204° |
| 2026-04-26 13:32 | 24.90235 | 67.16645 | 88 ft | 2 kts | 205° |
| 2026-04-26 13:32 | 24.90232 | 67.16644 | 88 ft | 0 kts | 205° |